Skip Navigation LinksHome page > Weather > Current weather Skip Navigation Links

Current Weather

San Francisco International, San Francisco

For information only: do not use for flight planning or navigation.
Latest weather
Observation time Saturday, April 18, 2015 7:56 PM PDT
Local time Saturday, April 18, 2015 8:03 PM PDT
Flight conditions Visual Meteorological Conditions
Winds
Wind direction West-Northwest (300°)
Wind speed 16 mph
Visibility 10 mi.
Sky condition
Ceiling unlimited
Cloud layer few clouds 600 ft.
Cloud layer scattered clouds 15,000 ft.
Temperature 53°F
Dewpoint 52°F
Altimeter 29.93 in.Hg
Pressure change last 3 hours0.00 in.Hg
Pressure falling, then rising
Derived measurements
Relative humidity 96%
Density altitude -204 ft.
Sea-level pressure 29.93 in.Hg
Remarks
Automated weather observing station with precipitation discriminator.
METAR KSFO 190256Z 30014KT 10SM FEW006 SCT150 12/11 A2993 RMK AO2 SLP136 T01170111 55001

Settings

Location code

InnerDrive.Weather 4.0.5567.0 Release CLR 4.0.30319.34014
Copyright ©2015 Inner Drive Technology. All rights reserved. Portions Copyright ©1986-2015 David Braverman.

Find weather

Site navigation


Skip Navigation Links

Place info

Page info

PayPal - The safer, easier way to pay online!

Return home.

Copyright ©2015 Inner Drive Technology. Purveyors of fine, hand-crafted computer software. Page printed 2015-04-19T03:03:57 UTC.